createdAt,value
2022-10-22T00:02:22.269Z,99367.09
2022-10-22T00:04:50.169Z,99364.72
2022-10-22T00:07:19.138Z,99355.22
2022-10-22T00:09:46.494Z,99344.69
2022-10-22T00:12:14.982Z,99345.09
2022-10-22T00:14:42.880Z,99339.44
2022-10-22T00:17:11.594Z,99347.31
2022-10-22T00:19:39.638Z,99348.41
2022-10-22T00:22:08.042Z,99347.94
2022-10-22T00:24:37.926Z,99347.44
2022-10-22T00:27:06.387Z,99341.31
2022-10-22T00:29:33.808Z,99336.81
2022-10-22T00:32:01.076Z,99336.41
2022-10-22T00:34:28.764Z,99334.59
2022-10-22T00:36:56.170Z,99328.53
2022-10-22T00:39:25.102Z,99322.03
2022-10-22T00:41:53.711Z,99318.34
2022-10-22T00:45:00.772Z,99323.69
2022-10-22T00:47:32.045Z,99325.31
2022-10-22T00:50:00.579Z,99331.41
2022-10-22T00:52:28.605Z,99318.38
2022-10-22T00:54:55.704Z,99320.03
2022-10-22T00:57:23.073Z,99326.13
2022-10-22T00:59:50.111Z,99324.56
2022-10-22T01:02:17.443Z,99324.56
2022-10-22T01:04:45.176Z,99326.41
2022-10-22T01:07:18.884Z,99321.22
2022-10-22T01:10:13.451Z,99316.38
2022-10-22T01:12:40.566Z,99325.78
2022-10-22T01:15:29.633Z,99324.50
2022-10-22T01:18:10.956Z,99326.06
2022-10-22T01:20:37.743Z,99331.59
2022-10-22T01:23:26.625Z,99318.38
2022-10-22T01:29:07.504Z,99301.53
2022-10-22T01:31:46.787Z,99298.84
2022-10-22T01:34:18.452Z,99287.34
2022-10-22T01:36:46.995Z,99293.09
2022-10-22T01:39:16.464Z,99286.88
2022-10-22T01:41:44.884Z,99282.66
2022-10-22T01:44:29.857Z,99284.09
2022-10-22T01:47:14.157Z,99297.31
2022-10-22T01:50:06.725Z,99300.72
2022-10-22T01:53:07.198Z,99293.16
2022-10-22T01:55:43.690Z,99269.91
2022-10-22T01:58:19.499Z,99270.78
2022-10-22T02:01:00.696Z,99277.88
2022-10-22T02:03:45.576Z,99278.44
2022-10-22T02:06:19.121Z,99247.31
2022-10-22T02:08:48.948Z,99248.91
2022-10-22T02:11:16.820Z,99255.81
2022-10-22T02:13:48.427Z,99268.41
2022-10-22T02:16:30.585Z,99279.47
2022-10-22T02:19:06.181Z,99279.75
2022-10-22T02:21:33.120Z,99275.63
2022-10-22T02:24:00.666Z,99286.84
2022-10-22T02:26:39.991Z,99277.22
2022-10-22T02:29:20.421Z,99280.19
2022-10-22T02:31:51.444Z,99267.63
2022-10-22T02:34:24.302Z,99268.50
2022-10-22T02:36:52.568Z,99264.50
2022-10-22T02:39:20.953Z,99270.38
2022-10-22T02:41:48.519Z,99265.91
2022-10-22T02:44:15.269Z,99263.84
2022-10-22T02:46:43.681Z,99263.66
2022-10-22T02:49:10.464Z,99256.34
2022-10-22T02:51:37.371Z,99252.03
2022-10-22T02:54:04.491Z,99252.63
2022-10-22T02:56:31.490Z,99258.59
2022-10-22T02:58:58.241Z,99248.47
2022-10-22T03:01:25.311Z,99248.75
2022-10-22T03:03:52.162Z,99251.19
2022-10-22T03:06:19.247Z,99260.41
2022-10-22T03:08:47.018Z,99254.00
2022-10-22T03:11:13.803Z,99250.72
2022-10-22T03:13:40.814Z,99256.16
2022-10-22T03:16:07.732Z,99266.97
2022-10-22T03:18:34.562Z,99263.25
2022-10-22T03:21:49.074Z,99263.69
2022-10-22T03:24:21.822Z,99264.06
2022-10-22T03:26:50.502Z,99257.78
2022-10-22T03:29:17.672Z,99252.03
2022-10-22T03:31:44.490Z,99251.94
2022-10-22T03:34:11.234Z,99238.59
2022-10-22T03:36:38.684Z,99242.50
2022-10-22T03:39:06.415Z,99257.50
2022-10-22T03:41:34.071Z,99252.69
2022-10-22T03:44:03.060Z,99251.03
2022-10-22T03:46:29.935Z,99241.28
2022-10-22T03:48:56.987Z,99225.53
2022-10-22T03:51:26.157Z,99224.53
2022-10-22T03:53:53.056Z,99215.47
2022-10-22T03:56:20.063Z,99229.41
2022-10-22T03:58:46.917Z,99250.19
2022-10-22T04:01:15.000Z,99251.50
2022-10-22T04:03:41.806Z,99249.59
2022-10-22T04:06:11.087Z,99246.56
2022-10-22T04:08:40.285Z,99252.88
2022-10-22T04:11:07.734Z,99255.72
2022-10-22T04:13:35.086Z,99267.59
2022-10-22T04:16:07.880Z,99279.25
2022-10-22T04:18:34.775Z,99275.78
2022-10-22T04:21:01.989Z,99276.44
2022-10-22T04:23:28.867Z,99278.53
2022-10-22T04:26:05.208Z,99271.06
2022-10-22T04:28:32.341Z,99263.59
2022-10-22T04:30:59.088Z,99268.75
2022-10-22T04:33:26.027Z,99253.97
2022-10-22T04:35:52.826Z,99257.13
2022-10-22T04:38:19.711Z,99252.13
2022-10-22T04:40:46.543Z,99259.78
2022-10-22T04:43:13.351Z,99265.28
2022-10-22T04:45:40.150Z,99269.78
2022-10-22T04:48:07.237Z,99265.66
2022-10-22T04:50:34.167Z,99271.13
2022-10-22T04:53:01.760Z,99274.88
2022-10-22T04:55:28.462Z,99271.81
2022-10-22T04:57:55.223Z,99276.53
2022-10-22T05:00:21.973Z,99276.16
2022-10-22T05:02:50.070Z,99273.31
2022-10-22T05:05:16.970Z,99267.28
2022-10-22T05:07:44.036Z,99271.66
2022-10-22T05:10:11.010Z,99272.84
2022-10-22T05:12:37.810Z,99269.88
2022-10-22T05:15:04.824Z,99263.72
2022-10-22T05:17:31.583Z,99263.47
2022-10-22T05:19:58.375Z,99275.72
2022-10-22T05:22:25.269Z,99268.16
2022-10-22T05:24:52.059Z,99272.94
2022-10-22T05:29:50.496Z,99272.16
2022-10-22T05:32:17.359Z,99278.72
2022-10-22T05:34:44.143Z,99280.41
2022-10-22T05:37:11.183Z,99295.47
2022-10-22T05:39:37.924Z,99297.69
2022-10-22T05:42:04.924Z,99289.72
2022-10-22T05:44:31.699Z,99297.75
2022-10-22T05:46:58.566Z,99291.59
2022-10-22T05:49:25.333Z,99279.56
2022-10-22T05:51:52.155Z,99268.34
2022-10-22T05:54:20.764Z,99268.94
2022-10-22T05:56:48.185Z,99276.28
2022-10-22T05:59:15.415Z,99284.88
2022-10-22T06:01:43.177Z,99276.44
2022-10-22T06:04:12.388Z,99286.78
2022-10-22T06:06:46.635Z,99291.56
2022-10-22T06:09:20.263Z,99293.09
2022-10-22T06:11:47.917Z,99298.28
2022-10-22T06:14:15.318Z,99304.97
2022-10-22T06:16:42.105Z,99309.06
2022-10-22T06:19:14.050Z,99308.25
2022-10-22T06:21:40.817Z,99301.38
2022-10-22T06:24:09.278Z,99304.47
2022-10-22T06:26:36.056Z,99308.38
2022-10-22T06:29:03.273Z,99320.38
2022-10-22T06:31:31.152Z,99321.84
2022-10-22T06:33:58.039Z,99327.31
2022-10-22T06:36:24.906Z,99332.75
2022-10-22T06:38:53.741Z,99329.56
2022-10-22T06:41:23.038Z,99322.97
2022-10-22T06:43:54.187Z,99314.25
2022-10-22T06:46:22.285Z,99317.56
2022-10-22T06:48:51.496Z,99328.78
2022-10-22T06:51:19.304Z,99351.25
2022-10-22T06:53:46.121Z,99354.31
2022-10-22T06:56:19.878Z,99357.25
2022-10-22T06:58:48.176Z,99365.06
2022-10-22T07:01:17.269Z,99378.31
2022-10-22T07:03:44.100Z,99370.66
2022-10-22T07:06:13.493Z,99383.13
2022-10-22T07:08:41.584Z,99390.63
2022-10-22T07:11:14.504Z,99408.75
2022-10-22T07:13:41.649Z,99422.09
2022-10-22T07:16:09.763Z,99432.81
2022-10-22T07:18:39.026Z,99423.34
2022-10-22T07:21:07.051Z,99426.94
2022-10-22T07:23:34.364Z,99429.00
2022-10-22T07:26:01.699Z,99436.31
2022-10-22T07:28:29.037Z,99437.59
2022-10-22T07:30:55.839Z,99458.53
2022-10-22T07:33:22.661Z,99465.84
2022-10-22T07:35:49.403Z,99449.22
2022-10-22T07:38:16.244Z,99444.97
2022-10-22T07:40:43.171Z,99448.06
2022-10-22T07:43:09.977Z,99451.41
2022-10-22T07:45:36.845Z,99464.16
2022-10-22T07:48:03.803Z,99465.81
2022-10-22T07:50:30.647Z,99467.50
2022-10-22T07:52:58.331Z,99466.63
2022-10-22T07:55:26.093Z,99475.53
2022-10-22T07:57:53.223Z,99469.06
2022-10-22T08:00:23.057Z,99461.19
2022-10-22T08:02:52.240Z,99463.81
2022-10-22T08:05:19.386Z,99460.41
2022-10-22T08:07:46.316Z,99445.41
2022-10-22T08:10:13.568Z,99440.16
2022-10-22T08:12:42.163Z,99432.84
2022-10-22T08:15:10.184Z,99412.09
2022-10-22T08:17:37.092Z,99413.06
2022-10-22T08:20:04.761Z,99423.31
2022-10-22T08:22:31.599Z,99428.75
2022-10-22T08:24:58.415Z,99426.59
2022-10-22T08:27:25.175Z,99428.66
2022-10-22T08:29:51.982Z,99428.66
2022-10-22T08:32:18.847Z,99418.13
2022-10-22T08:34:45.637Z,99421.53
2022-10-22T08:37:13.226Z,99428.66
2022-10-22T08:39:41.277Z,99432.06
2022-10-22T08:42:29.758Z,99433.34
2022-10-22T08:45:06.767Z,99428.53
2022-10-22T08:47:59.946Z,99428.00
2022-10-22T08:50:38.646Z,99427.41
2022-10-22T08:53:15.571Z,99432.97
2022-10-22T08:55:42.649Z,99432.97
2022-10-22T08:58:30.411Z,99444.47
2022-10-22T09:01:01.792Z,99435.50
2022-10-22T09:03:38.338Z,99427.91
2022-10-22T09:06:07.845Z,99426.25
2022-10-22T09:08:37.315Z,99419.13
2022-10-22T09:11:12.497Z,99422.53
2022-10-22T09:13:42.539Z,99417.78
2022-10-22T09:16:17.981Z,99417.78
2022-10-22T09:19:23.049Z,99421.94
2022-10-22T09:22:15.181Z,99422.44
2022-10-22T09:24:52.470Z,99426.91
2022-10-22T09:27:30.638Z,99431.31
2022-10-22T09:29:57.776Z,99436.47
2022-10-22T09:32:26.390Z,99436.94
2022-10-22T09:34:57.033Z,99441.44
2022-10-22T09:37:28.153Z,99452.16
2022-10-22T09:39:57.428Z,99451.84
2022-10-22T09:42:24.825Z,99454.22
2022-10-22T09:44:59.761Z,99444.16
2022-10-22T09:47:42.954Z,99447.75
2022-10-22T09:50:41.569Z,99461.88
2022-10-22T09:53:29.077Z,99466.84
2022-10-22T09:55:59.062Z,99464.88
2022-10-22T09:58:26.787Z,99474.34
2022-10-22T10:01:00.054Z,99466.28
2022-10-22T10:03:31.866Z,99471.53
2022-10-22T10:06:04.796Z,99465.69
2022-10-22T10:08:33.661Z,99475.59
2022-10-22T10:11:07.836Z,99478.34
2022-10-22T10:13:52.880Z,99464.97
2022-10-22T10:16:47.665Z,99473.06
2022-10-22T10:19:36.060Z,99474.63
2022-10-22T10:22:21.331Z,99466.91
2022-10-22T10:25:10.286Z,99466.44
2022-10-22T10:28:10.725Z,99484.56
2022-10-22T10:30:48.719Z,99485.84
2022-10-22T10:33:31.466Z,99475.19
2022-10-22T10:36:17.656Z,99483.56
2022-10-22T10:39:03.553Z,99473.50
2022-10-22T10:41:49.022Z,99464.22
2022-10-22T10:44:31.987Z,99464.41
2022-10-22T10:47:16.194Z,99466.47
2022-10-22T10:49:43.714Z,99465.56
2022-10-22T10:52:30.812Z,99469.16
2022-10-22T10:55:25.316Z,99456.16
2022-10-22T10:57:54.846Z,99450.28
2022-10-22T11:00:22.498Z,99460.41
2022-10-22T11:03:26.747Z,99455.31
2022-10-22T11:05:57.978Z,99452.09
2022-10-22T11:08:43.972Z,99463.59
2022-10-22T11:11:33.132Z,99450.47
2022-10-22T11:14:11.449Z,99460.28
2022-10-22T11:16:57.779Z,99440.91
2022-10-22T11:19:50.112Z,99439.81
2022-10-22T11:23:00.245Z,99429.81
2022-10-22T11:25:40.861Z,99435.34
2022-10-22T11:28:22.762Z,99441.88
2022-10-22T11:31:00.358Z,99447.34
2022-10-22T11:33:33.229Z,99449.47
2022-10-22T11:36:02.955Z,99465.38
2022-10-22T11:38:32.813Z,99463.84
2022-10-22T11:41:12.321Z,99462.47
2022-10-22T11:43:55.561Z,99460.00
2022-10-22T11:46:22.382Z,99451.00
2022-10-22T11:49:13.770Z,99451.19
2022-10-22T11:51:42.430Z,99452.31
2022-10-22T11:54:24.191Z,99447.22
2022-10-22T11:57:16.334Z,99439.75
2022-10-22T11:59:43.082Z,99435.88
2022-10-22T12:02:43.780Z,99439.34
2022-10-22T12:05:22.874Z,99435.41
2022-10-22T12:08:15.918Z,99427.06
2022-10-22T12:10:57.622Z,99421.19
2022-10-22T12:13:28.076Z,99424.41
2022-10-22T12:15:59.304Z,99425.44
2022-10-22T12:18:31.498Z,99425.91
2022-10-22T12:20:58.432Z,99430.09
2022-10-22T12:23:32.154Z,99431.78
2022-10-22T12:25:58.923Z,99425.69
2022-10-22T12:28:25.746Z,99423.50
2022-10-22T12:30:52.507Z,99431.59
2022-10-22T12:33:22.185Z,99422.06
2022-10-22T12:35:50.700Z,99426.59
2022-10-22T12:38:21.361Z,99423.16
2022-10-22T12:40:50.537Z,99419.09
2022-10-22T12:43:20.317Z,99418.31
2022-10-22T12:45:50.487Z,99416.00
2022-10-22T12:48:40.260Z,99415.34
2022-10-22T12:51:09.155Z,99421.41
2022-10-22T12:53:38.488Z,99414.44
2022-10-22T12:56:13.410Z,99422.84
2022-10-22T12:58:43.468Z,99412.56
2022-10-22T13:01:15.883Z,99405.84
2022-10-22T13:03:48.697Z,99408.50
2022-10-22T13:06:18.706Z,99413.34
2022-10-22T13:08:55.566Z,99416.00
2022-10-22T13:11:22.555Z,99412.22
2022-10-22T13:13:49.330Z,99411.78
2022-10-22T13:16:22.717Z,99406.94
2022-10-22T13:18:51.402Z,99405.84
2022-10-22T13:21:38.621Z,99408.16
2022-10-22T13:24:23.350Z,99409.25
2022-10-22T13:26:53.143Z,99411.47
2022-10-22T13:29:22.607Z,99412.91
2022-10-22T13:31:52.271Z,99418.84
2022-10-22T13:34:25.066Z,99417.94
2022-10-22T13:36:52.201Z,99410.19
2022-10-22T13:39:21.872Z,99419.25
2022-10-22T13:41:49.774Z,99413.94
2022-10-22T13:44:17.900Z,99422.19
2022-10-22T13:46:45.833Z,99423.00
2022-10-22T13:49:19.032Z,99420.66
2022-10-22T13:51:46.808Z,99419.88
2022-10-22T13:54:18.043Z,99419.00
2022-10-22T13:56:45.893Z,99413.81
2022-10-22T13:59:13.131Z,99420.22
2022-10-22T14:01:40.752Z,99417.56
2022-10-22T14:04:12.562Z,99430.38
2022-10-22T14:06:40.073Z,99432.56
2022-10-22T14:09:13.896Z,99431.78
2022-10-22T14:11:40.995Z,99429.91
2022-10-22T14:14:07.895Z,99440.06
2022-10-22T14:16:35.285Z,99434.75
2022-10-22T14:19:02.794Z,99438.38
2022-10-22T14:21:35.106Z,99435.75
2022-10-22T14:24:02.166Z,99427.00
2022-10-22T14:26:32.138Z,99432.63
2022-10-22T14:29:15.422Z,99435.06
2022-10-22T14:31:44.592Z,99442.59
2022-10-22T14:34:14.408Z,99453.75
2022-10-22T14:36:41.810Z,99455.63
2022-10-22T14:39:08.936Z,99456.09
2022-10-22T14:41:37.170Z,99453.09
2022-10-22T14:44:04.296Z,99443.16
2022-10-22T14:46:31.179Z,99436.00
2022-10-22T14:48:58.337Z,99438.31
2022-10-22T14:51:25.271Z,99429.59
2022-10-22T14:53:52.209Z,99429.91
2022-10-22T14:56:20.118Z,99438.19
2022-10-22T14:58:47.350Z,99440.19
2022-10-22T15:01:14.393Z,99436.00
2022-10-22T15:03:41.352Z,99440.97
2022-10-22T15:06:08.190Z,99450.16
2022-10-22T15:08:35.185Z,99445.63
2022-10-22T15:11:05.386Z,99449.03
2022-10-22T15:13:33.054Z,99450.47
2022-10-22T15:16:00.491Z,99458.41
2022-10-22T15:18:29.074Z,99462.63
2022-10-22T15:21:01.483Z,99457.63
2022-10-22T15:23:29.254Z,99465.59
2022-10-22T15:25:56.866Z,99464.47
2022-10-22T15:28:24.569Z,99457.63
2022-10-22T15:30:59.733Z,99457.00
2022-10-22T15:33:28.626Z,99454.34
2022-10-22T15:35:56.771Z,99458.88
2022-10-22T15:41:05.291Z,99455.44
2022-10-22T15:43:34.841Z,99459.19
2022-10-22T15:46:16.797Z,99468.25
2022-10-22T15:48:45.063Z,99461.97
2022-10-22T15:51:14.949Z,99466.06
2022-10-22T15:53:43.055Z,99463.19
2022-10-22T15:56:11.268Z,99465.19
2022-10-22T15:58:39.021Z,99468.75
2022-10-22T16:01:12.501Z,99475.47
2022-10-22T16:03:40.239Z,99484.66
2022-10-22T16:06:08.508Z,99491.97
2022-10-22T16:08:35.450Z,99483.25
2022-10-22T16:11:02.549Z,99488.81
2022-10-22T16:13:29.430Z,99498.94
2022-10-22T16:15:56.470Z,99503.94
2022-10-22T16:18:23.811Z,99502.50
2022-10-22T16:20:50.692Z,99503.94
2022-10-22T16:23:20.023Z,99501.41
2022-10-22T16:25:46.955Z,99496.88
2022-10-22T16:28:14.246Z,99507.66
2022-10-22T16:30:41.257Z,99518.28
2022-10-22T16:33:10.082Z,99524.69
2022-10-22T16:35:42.503Z,99523.59
2022-10-22T16:38:11.303Z,99533.09
2022-10-22T16:40:38.412Z,99541.69
2022-10-22T16:43:05.739Z,99544.03
2022-10-22T16:45:32.972Z,99535.28
2022-10-22T16:47:59.874Z,99542.00
2022-10-22T16:50:27.238Z,99548.13
2022-10-22T16:52:54.695Z,99554.50
2022-10-22T16:55:21.845Z,99555.81
2022-10-22T16:57:52.344Z,99570.91
2022-10-22T17:00:21.252Z,99575.44
2022-10-22T17:02:53.981Z,99580.59
2022-10-22T17:05:21.846Z,99572.97
2022-10-22T17:07:49.847Z,99586.53
2022-10-22T17:10:18.888Z,99577.50
2022-10-22T17:12:48.016Z,99576.75
2022-10-22T17:15:15.878Z,99586.25
2022-10-22T17:17:43.225Z,99589.03
2022-10-22T17:20:12.179Z,99598.84
2022-10-22T17:22:40.048Z,99590.44
2022-10-22T17:25:25.803Z,99596.97
2022-10-22T17:27:53.974Z,99595.28
2022-10-22T17:30:24.985Z,99605.44
2022-10-22T17:32:55.696Z,99597.47
2022-10-22T17:35:23.293Z,99599.34
2022-10-22T17:37:52.351Z,99594.69
2022-10-22T17:40:21.875Z,99595.31
2022-10-22T17:42:49.380Z,99599.50
2022-10-22T17:45:17.262Z,99604.38
2022-10-22T17:47:45.080Z,99615.75
2022-10-22T17:50:12.742Z,99622.00
2022-10-22T17:52:40.456Z,99612.50
2022-10-22T17:55:12.873Z,99610.94
2022-10-22T17:57:40.934Z,99617.66
2022-10-22T18:00:10.206Z,99617.34
2022-10-22T18:02:37.873Z,99621.53
2022-10-22T18:05:05.523Z,99622.19
2022-10-22T18:07:32.651Z,99625.59
2022-10-22T18:09:59.923Z,99630.91
2022-10-22T18:12:27.221Z,99639.19
2022-10-22T18:14:57.123Z,99637.63
2022-10-22T18:17:26.760Z,99637.63
2022-10-22T18:19:55.623Z,99631.88
2022-10-22T18:22:23.324Z,99638.72
2022-10-22T18:24:50.844Z,99644.00
2022-10-22T18:27:19.722Z,99641.69
2022-10-22T18:29:50.385Z,99637.94
2022-10-22T18:32:18.949Z,99647.75
2022-10-22T18:34:46.379Z,99645.59
2022-10-22T18:37:13.919Z,99641.06
2022-10-22T18:39:43.465Z,99650.25
2022-10-22T18:42:11.258Z,99643.41
2022-10-22T18:44:38.619Z,99644.53
2022-10-22T18:47:07.118Z,99653.25
2022-10-22T18:49:34.950Z,99652.78
2022-10-22T18:52:03.186Z,99655.75
2022-10-22T18:54:31.136Z,99648.88
2022-10-22T18:57:02.571Z,99647.97
2022-10-22T18:59:31.227Z,99664.78
2022-10-22T19:01:59.005Z,99675.38
2022-10-22T19:04:29.298Z,99674.28
2022-10-22T19:06:57.291Z,99676.16
2022-10-22T19:09:26.499Z,99680.53
2022-10-22T19:11:53.997Z,99677.56
2022-10-22T19:14:21.046Z,99682.72
2022-10-22T19:16:49.095Z,99678.97
2022-10-22T19:19:19.485Z,99684.28
2022-10-22T19:21:47.197Z,99690.81
2022-10-22T19:24:16.999Z,99690.81
2022-10-22T19:26:45.727Z,99691.59
2022-10-22T19:29:16.321Z,99697.69
2022-10-22T19:31:43.934Z,99693.00
2022-10-22T19:34:12.149Z,99708.13
2022-10-22T19:36:39.975Z,99703.88
2022-10-22T19:39:07.391Z,99707.31
2022-10-22T19:41:35.261Z,99712.31
2022-10-22T19:44:02.905Z,99709.50
2022-10-22T19:46:32.112Z,99717.91
2022-10-22T19:49:00.098Z,99716.53
2022-10-22T19:51:30.083Z,99726.03
2022-10-22T19:54:06.514Z,99724.97
2022-10-22T19:56:35.859Z,99719.66
2022-10-22T19:59:05.000Z,99722.75
2022-10-22T20:01:32.405Z,99724.97
2022-10-22T20:03:59.453Z,99718.88
2022-10-22T20:06:27.329Z,99717.31
2022-10-22T20:08:56.159Z,99718.09
2022-10-22T20:11:27.692Z,99728.81
2022-10-22T20:13:56.134Z,99721.06
2022-10-22T20:16:25.723Z,99727.72
2022-10-22T20:18:52.905Z,99725.84
2022-10-22T20:21:20.497Z,99714.97
2022-10-22T20:23:53.466Z,99722.13
2022-10-22T20:26:21.534Z,99722.91
2022-10-22T20:28:48.655Z,99721.34
2022-10-22T20:31:19.283Z,99723.19
2022-10-22T20:33:47.873Z,99738.31
2022-10-22T20:36:21.024Z,99733.03
2022-10-22T20:38:48.319Z,99733.34
2022-10-22T20:41:22.265Z,99735.84
2022-10-22T20:43:51.706Z,99738.16
2022-10-22T20:46:26.202Z,99745.19
2022-10-22T20:48:58.532Z,99744.75
2022-10-22T20:51:25.963Z,99750.50
2022-10-22T20:53:53.318Z,99748.63
2022-10-22T20:56:21.306Z,99742.09
2022-10-22T20:58:50.113Z,99752.22
2022-10-22T21:01:21.842Z,99761.41
2022-10-22T21:03:51.423Z,99766.38
2022-10-22T21:06:20.230Z,99756.88
2022-10-22T21:08:47.161Z,99761.69
2022-10-22T21:11:14.166Z,99762.03
2022-10-22T21:13:41.036Z,99768.09
2022-10-22T21:16:10.688Z,99769.03
2022-10-22T21:18:37.835Z,99763.25
2022-10-22T21:21:06.147Z,99765.31
2022-10-22T21:23:35.316Z,99769.03
2022-10-22T21:26:02.470Z,99767.00
2022-10-22T21:30:57.416Z,99765.28
2022-10-22T21:33:24.299Z,99769.03
2022-10-22T21:35:53.220Z,99771.69
2022-10-22T21:38:20.848Z,99771.97
2022-10-22T21:40:47.858Z,99776.19
2022-10-22T21:43:15.786Z,99773.22
2022-10-22T21:45:43.129Z,99773.06
2022-10-22T21:48:11.608Z,99775.28
2022-10-22T21:50:40.236Z,99770.25
2022-10-22T21:53:09.248Z,99775.56
2022-10-22T21:55:40.692Z,99773.06
2022-10-22T21:58:14.646Z,99774.47
2022-10-22T22:00:54.356Z,99771.38
2022-10-22T22:03:21.390Z,99776.66
2022-10-22T22:05:48.383Z,99773.53
2022-10-22T22:08:15.781Z,99772.31
2022-10-22T22:10:43.287Z,99781.16
2022-10-22T22:13:10.241Z,99776.94
2022-10-22T22:15:37.040Z,99781.16
2022-10-22T22:18:04.062Z,99775.53
2022-10-22T22:20:30.863Z,99769.31
2022-10-22T22:22:57.781Z,99774.59
2022-10-22T22:25:24.503Z,99768.84
2022-10-22T22:27:51.515Z,99771.94
2022-10-22T22:30:18.234Z,99771.50
2022-10-22T22:32:45.013Z,99770.84
2022-10-22T22:35:11.832Z,99778.78
2022-10-22T22:37:38.843Z,99771.19
2022-10-22T22:40:06.423Z,99773.03
2022-10-22T22:42:33.314Z,99769.47
2022-10-22T22:45:00.114Z,99769.78
2022-10-22T22:47:26.896Z,99763.41
2022-10-22T22:49:53.806Z,99757.63
2022-10-22T22:54:52.525Z,99761.53
2022-10-22T22:57:19.256Z,99765.09
2022-10-22T22:59:49.406Z,99763.06
2022-10-22T23:02:16.374Z,99769.13
2022-10-22T23:04:43.285Z,99772.88
2022-10-22T23:07:10.467Z,99775.81
2022-10-22T23:09:37.306Z,99780.03
2022-10-22T23:12:04.307Z,99773.34
2022-10-22T23:14:31.227Z,99781.25
2022-10-22T23:16:57.973Z,99782.09
2022-10-22T23:19:24.754Z,99784.06
2022-10-22T23:21:54.392Z,99786.59
2022-10-22T23:24:24.377Z,99800.31
2022-10-22T23:26:53.357Z,99797.13
2022-10-22T23:29:26.438Z,99793.03
2022-10-22T23:31:54.535Z,99798.47
2022-10-22T23:34:24.917Z,99805.13
2022-10-22T23:36:52.001Z,99799.03
2022-10-22T23:39:22.512Z,99801.53
2022-10-22T23:41:49.610Z,99804.47
2022-10-22T23:44:16.491Z,99805.91
2022-10-22T23:46:43.788Z,99808.34
2022-10-22T23:49:11.750Z,99815.31
2022-10-22T23:51:40.091Z,99805.78
2022-10-22T23:54:10.701Z,99811.16
2022-10-22T23:56:38.340Z,99809.34
2022-10-22T23:59:05.896Z,99815.75
